Lake Winola, Pennsylvania
Current Conditions -  °F | °C
As of 12:54 AM on Tuesday 21 Oct 2014 (Local Time) from KAVP Reporting Station
Overcast Overcast  
Wind Chill: 55°   Ceiling: 4100
Heat Index: 55°   Visibility: 10mi
Dew Point: 43°   Wind: 7mph
Humidity: 64%   Direction: 250°WSW
Pressure: 29.89"   Gusts: NA
Location:  41.51°N, 75.85°W
Report Text: KAVP 210454Z AUTO 25006KT 10SM BKN041 BKN060 OVC095 13/06 A2989 RMK AO2 SLP122 T01280061 401500000
Loading
Personal Weather Stations






























Interactive Weather Map
Tropical Storm Tracking
New forecast layout! Learn more

10-Day Weather Forecast

Advertisements
Track Severe Weather on mobile